createdAt,value
2022-11-17T00:01:53.165Z,83.20
2022-11-17T00:12:20.546Z,83.21
2022-11-17T00:22:25.789Z,83.45
2022-11-17T00:32:47.664Z,82.31
2022-11-17T00:42:50.602Z,82.44
2022-11-17T00:52:55.164Z,81.87
2022-11-17T01:02:58.140Z,82.46
2022-11-17T01:13:02.661Z,83.19
2022-11-17T01:23:05.572Z,84.45
2022-11-17T01:33:09.896Z,85.69
2022-11-17T01:43:12.788Z,86.32
2022-11-17T01:53:20.362Z,87.03
2022-11-17T02:03:25.730Z,88.37
2022-11-17T02:13:30.216Z,89.40
2022-11-17T02:24:04.730Z,89.87
2022-11-17T02:34:23.766Z,90.28
2022-11-17T02:44:30.346Z,90.61
2022-11-17T02:54:35.183Z,92.15
2022-11-17T03:04:47.065Z,92.74
2022-11-17T03:15:02.399Z,93.11
2022-11-17T03:25:11.953Z,92.88
2022-11-17T03:35:19.917Z,92.02
2022-11-17T03:45:26.486Z,91.70
2022-11-17T03:55:37.801Z,91.61
2022-11-17T04:05:40.843Z,90.76
2022-11-17T04:16:01.683Z,89.86
2022-11-17T04:26:22.563Z,89.34
2022-11-17T04:36:28.485Z,89.68
2022-11-17T04:46:32.875Z,90.91
2022-11-17T04:56:38.000Z,90.38
2022-11-17T05:06:43.211Z,90.51
2022-11-17T05:17:10.118Z,89.87
2022-11-17T05:27:13.880Z,89.80
2022-11-17T05:37:18.315Z,89.35
2022-11-17T05:47:21.353Z,89.42
2022-11-17T05:57:30.320Z,89.00
2022-11-17T06:07:33.593Z,89.17
2022-11-17T06:17:42.227Z,89.92
2022-11-17T06:27:46.728Z,94.21
2022-11-17T06:37:51.003Z,96.35
2022-11-17T06:47:54.407Z,96.05
2022-11-17T06:58:01.916Z,95.96
2022-11-17T07:08:08.361Z,94.20
2022-11-17T07:18:13.112Z,94.70
2022-11-17T07:28:35.812Z,95.11
2022-11-17T07:38:41.489Z,94.20
2022-11-17T07:48:44.860Z,93.99
2022-11-17T07:58:49.279Z,94.70
2022-11-17T08:08:53.716Z,94.58
2022-11-17T08:18:58.611Z,93.48
2022-11-17T08:29:02.088Z,93.27
2022-11-17T08:39:06.938Z,93.34
2022-11-17T08:49:10.029Z,91.26
2022-11-17T08:59:14.628Z,90.78
2022-11-17T09:09:18.761Z,90.17
2022-11-17T09:19:23.236Z,89.54
2022-11-17T09:29:27.581Z,89.44
2022-11-17T09:39:31.614Z,90.71
2022-11-17T09:49:43.575Z,87.36
2022-11-17T09:59:53.475Z,85.43
2022-11-17T10:09:56.799Z,83.33
2022-11-17T10:20:01.254Z,81.64
2022-11-17T10:30:08.095Z,82.71
2022-11-17T10:40:25.023Z,78.81
2022-11-17T10:50:28.982Z,74.67
2022-11-17T11:00:35.020Z,74.74
2022-11-17T11:10:38.145Z,73.68
2022-11-17T11:20:48.859Z,71.42
2022-11-17T11:31:02.785Z,70.42
2022-11-17T11:41:23.686Z,69.29
2022-11-17T11:51:30.346Z,69.55
2022-11-17T12:01:46.887Z,69.40
2022-11-17T12:12:11.130Z,71.07
2022-11-17T12:22:39.443Z,68.12
2022-11-17T12:32:55.606Z,67.58
2022-11-17T12:43:22.646Z,69.51
2022-11-17T12:53:48.582Z,68.80
2022-11-17T13:03:58.983Z,67.88
2022-11-17T13:14:10.856Z,67.85
2022-11-17T13:24:30.310Z,66.87
2022-11-17T13:34:33.498Z,65.40
2022-11-17T13:44:38.466Z,66.43
2022-11-17T13:54:44.972Z,67.89
2022-11-17T14:05:21.877Z,67.78
2022-11-17T14:15:27.881Z,68.50
2022-11-17T14:25:31.277Z,68.07
2022-11-17T14:35:35.939Z,69.67
2022-11-17T14:45:38.956Z,70.75
2022-11-17T14:55:43.360Z,70.48
2022-11-17T15:05:47.189Z,72.69
2022-11-17T15:15:51.648Z,71.35
2022-11-17T15:25:54.603Z,72.18
2022-11-17T15:36:06.523Z,72.20
2022-11-17T15:46:11.567Z,73.18
2022-11-17T15:56:18.983Z,74.63
2022-11-17T16:06:22.001Z,74.03
2022-11-17T16:16:29.161Z,74.50
2022-11-17T16:26:35.194Z,75.54
2022-11-17T16:36:41.595Z,76.06
2022-11-17T16:46:46.743Z,76.67
2022-11-17T16:56:51.024Z,75.50
2022-11-17T17:06:54.912Z,76.20
2022-11-17T17:16:59.547Z,77.54
2022-11-17T17:27:02.613Z,77.18
2022-11-17T17:37:07.092Z,76.86
2022-11-17T17:47:10.112Z,77.53
2022-11-17T17:57:14.524Z,79.54
2022-11-17T18:07:17.690Z,80.47
2022-11-17T18:17:22.120Z,81.73
2022-11-17T18:27:25.142Z,83.54
2022-11-17T18:37:30.008Z,84.14
2022-11-17T18:47:33.115Z,86.17
2022-11-17T18:57:40.783Z,84.70
2022-11-17T19:07:48.444Z,85.25
2022-11-17T19:17:52.855Z,85.64
2022-11-17T19:27:55.900Z,86.42
2022-11-17T19:38:00.667Z,84.59
2022-11-17T19:48:03.667Z,83.83
2022-11-17T19:58:07.982Z,83.68
2022-11-17T20:08:10.986Z,83.75
2022-11-17T20:18:15.346Z,83.96
2022-11-17T20:28:18.375Z,83.18
2022-11-17T20:38:22.734Z,84.12
2022-11-17T20:48:26.205Z,84.73
2022-11-17T20:58:31.443Z,84.41
2022-11-17T21:08:36.281Z,84.83
2022-11-17T21:18:46.841Z,84.01
2022-11-17T21:28:50.179Z,83.64
2022-11-17T21:38:55.104Z,83.53
2022-11-17T21:48:59.844Z,83.25
2022-11-17T21:59:06.356Z,83.01
2022-11-17T22:09:09.874Z,83.36
2022-11-17T22:19:15.917Z,82.10
2022-11-17T22:29:21.527Z,83.48
2022-11-17T22:39:26.059Z,84.75
2022-11-17T22:49:28.900Z,85.52
2022-11-17T22:59:33.256Z,85.28
2022-11-17T23:09:36.198Z,84.59
2022-11-17T23:19:40.448Z,84.52
2022-11-17T23:29:43.475Z,84.06
2022-11-17T23:39:47.723Z,83.78
2022-11-17T23:49:50.654Z,83.82
2022-11-17T23:59:54.963Z,83.24
